Finlandia — OJPP — position and weather

sailwx.info

Track history (hours):
 
Tides and Currents Weather Stations Pressure Air Temp Water Temp Dewpoint Dewpoint Depression Visibility Wind Speed Wind Dir Waves Ship Positions

Finlandia

Last reported at 2015-Sep-01 16:33 UTC. Time now 2015-Sep-02 06:29 UTC.
Position N 59°40' E 024°44'.

Length 175 m; draft 7 m.

Type: Ship (hazmat cat A). MMSI: 230628000.

Date/timePositionNaut miles runAvg speedWind from/ knotsBaromVisibWave heightAir tempDewpointWater temp
2015-Sep-01 16:33N 59°40' E 024°44'1313.2
2015-Sep-01 15:33N 59°27' E 024°46'0 0.2
2015-Sep-01 14:33N 59°27' E 024°47'2221.3
2015-Sep-01 13:32N 59°49' E 024°49'7 2.1
2015-Sep-01 10:27N 59°55' E 024°51'2123.1
2015-Sep-01 09:34N 59°35' E 024°42'9 8.4
2015-Sep-01 08:32N 59°27' E 024°46'3 2.6
2015-Sep-01 07:33N 59°29' E 024°45'2120.0
2015-Sep-01 06:30N 59°50' E 024°48'19 1.7
2015-Aug-31 19:15N 60°09' E 024°55'0 0.0
2015-Aug-31 18:33N 60°09' E 024°55'9 8.6
2015-Aug-31 17:31N 60°00' E 024°54'2122.2
2015-Aug-31 16:34N 59°40' E 024°44'12 6.2
2015-Aug-31 14:33N 59°27' E 024°46'2121.2
2015-Aug-31 13:33N 59°49' E 024°49'13 3.2
2015-Aug-31 09:32N 59°37' E 024°41'6 3.2
2015-Aug-31 07:33N 59°30' E 024°44'1817.7
2015-Aug-31 06:32N 59°48' E 024°49'2020.0
2015-Aug-31 05:33N 60°08' E 024°54'30 2.3
2015-Aug-30 16:34N 59°38' E 024°41'3 1.1
2015-Aug-30 14:09N 59°36' E 024°40'1423.4
2015-Aug-30 13:34N 59°49' E 024°49'14 3.4
2015-Aug-30 09:33N 59°36' E 024°41'9 9.2
2015-Aug-30 08:33N 59°27' E 024°46'2 1.6
2015-Aug-30 07:33N 59°28' E 024°46'4019.8
2015-Aug-30 05:33N 60°08' E 024°54'41 2.9
2015-Aug-29 15:26N 59°27' E 024°46'2 2.5
2015-Aug-29 14:33N 59°29' E 024°45'9 0.3
2015-Aug-28 09:33N 59°38' E 024°42'  
2015-Aug-25 18:33N 60°09' E 024°55'1716.3
2015-Aug-25 17:32N 59°52' E 024°52'17 4.9
2015-Aug-25 14:08N 59°37' E 024°40'1423.7
2015-Aug-25 13:34N 59°50' E 024°48'7 2.3
2015-Aug-25 10:34N 59°56' E 024°55'2322.4
2015-Aug-25 09:31N 59°34' E 024°43'5 2.5
2015-Aug-25 07:34N 59°29' E 024°45'2020.0
2015-Aug-25 06:34N 59°49' E 024°47'2019.7
2015-Aug-25 05:33N 60°08' E 024°54'1 0.1
2015-Aug-24 20:30N 60°09' E 024°55'0 0.2
2015-Aug-24 18:33N 60°09' E 024°55'1716.8
2015-Aug-24 17:34N 59°52' E 024°52'1818.0
2015-Aug-24 16:33N 59°35' E 024°42'7 3.7
2015-Aug-24 14:34N 59°28' E 024°46'2120.8
2015-Aug-24 13:34N 59°49' E 024°48'19 7.6
2015-Aug-24 11:05N 60°07' E 024°54'1019.4
2015-Aug-24 10:34N 59°57' E 024°54'2120.9
2015-Aug-24 09:34N 59°37' E 024°41'9 4.4
2015-Aug-24 07:33N 59°29' E 024°46'1919.1
2015-Aug-24 06:33N 59°48' E 024°49'2019.9
2015-Aug-24 05:33N 60°07' E 024°54'2 0.2
2015-Aug-23 21:14N 60°09' E 024°55'0 0.0
2015-Aug-23 20:23N 60°09' E 024°55'0 0.0
2015-Aug-23 19:26N 60°09' E 024°55'0 0.0
2015-Aug-23 18:26N 60°09' E 024°55'9 9.9
2015-Aug-23 17:33N 60°01' E 024°54'3021.3
2015-Aug-23 16:09N 59°31' E 024°45'4 2.3
2015-Aug-23 14:30N 59°27' E 024°47'2021.6
2015-Aug-23 13:34N 59°48' E 024°48'10 3.2
2015-Aug-23 10:33N 59°57' E 024°53'2019.9
2015-Aug-23 09:33N 59°38' E 024°42'10 5.0
2015-Aug-23 07:33N 59°28' E 024°46'1919.5
2015-Aug-23 06:33N 59°48' E 024°50'5 0.4
2015-Aug-22 17:28N 59°52' E 024°51'  
Track history (hours):
 
Tides and Currents Weather Stations Pressure Air Temp Water Temp Dewpoint Dewpoint Depression Visibility Wind Speed Wind Dir Waves Ship Positions

Finlandia

Last reported at 2015-Sep-01 16:33 UTC. Time now 2015-Sep-02 06:29 UTC.
Position N 59°40' E 024°44'.

Length 175 m; draft 7 m.

Type: Ship (hazmat cat A). MMSI: 230628000.

Date/timePositionNaut miles runAvg speedWind from/ knotsBaromVisibWave heightAir tempDewpointWater temp
2015-Sep-01 16:33N 59°40' E 024°44'1313.2
2015-Sep-01 15:33N 59°27' E 024°46'0 0.2
2015-Sep-01 14:33N 59°27' E 024°47'2221.3
2015-Sep-01 13:32N 59°49' E 024°49'7 2.1
2015-Sep-01 10:27N 59°55' E 024°51'2123.1
2015-Sep-01 09:34N 59°35' E 024°42'9 8.4
2015-Sep-01 08:32N 59°27' E 024°46'3 2.6
2015-Sep-01 07:33N 59°29' E 024°45'2120.0
2015-Sep-01 06:30N 59°50' E 024°48'19 1.7
2015-Aug-31 19:15N 60°09' E 024°55'0 0.0
2015-Aug-31 18:33N 60°09' E 024°55'9 8.6
2015-Aug-31 17:31N 60°00' E 024°54'2122.2
2015-Aug-31 16:34N 59°40' E 024°44'12 6.2
2015-Aug-31 14:33N 59°27' E 024°46'2121.2
2015-Aug-31 13:33N 59°49' E 024°49'13 3.2
2015-Aug-31 09:32N 59°37' E 024°41'6 3.2
2015-Aug-31 07:33N 59°30' E 024°44'1817.7
2015-Aug-31 06:32N 59°48' E 024°49'2020.0
2015-Aug-31 05:33N 60°08' E 024°54'30 2.3
2015-Aug-30 16:34N 59°38' E 024°41'3 1.1
2015-Aug-30 14:09N 59°36' E 024°40'1423.4
2015-Aug-30 13:34N 59°49' E 024°49'14 3.4
2015-Aug-30 09:33N 59°36' E 024°41'9 9.2
2015-Aug-30 08:33N 59°27' E 024°46'2 1.6
2015-Aug-30 07:33N 59°28' E 024°46'4019.8
2015-Aug-30 05:33N 60°08' E 024°54'41 2.9
2015-Aug-29 15:26N 59°27' E 024°46'2 2.5
2015-Aug-29 14:33N 59°29' E 024°45'9 0.3
2015-Aug-28 09:33N 59°38' E 024°42'  
2015-Aug-25 18:33N 60°09' E 024°55'1716.3
2015-Aug-25 17:32N 59°52' E 024°52'17 4.9
2015-Aug-25 14:08N 59°37' E 024°40'1423.7
2015-Aug-25 13:34N 59°50' E 024°48'7 2.3
2015-Aug-25 10:34N 59°56' E 024°55'2322.4
2015-Aug-25 09:31N 59°34' E 024°43'5 2.5
2015-Aug-25 07:34N 59°29' E 024°45'2020.0
2015-Aug-25 06:34N 59°49' E 024°47'2019.7
2015-Aug-25 05:33N 60°08' E 024°54'1 0.1
2015-Aug-24 20:30N 60°09' E 024°55'0 0.2
2015-Aug-24 18:33N 60°09' E 024°55'1716.8
2015-Aug-24 17:34N 59°52' E 024°52'1818.0
2015-Aug-24 16:33N 59°35' E 024°42'7 3.7
2015-Aug-24 14:34N 59°28' E 024°46'2120.8
2015-Aug-24 13:34N 59°49' E 024°48'19 7.6
2015-Aug-24 11:05N 60°07' E 024°54'1019.4
2015-Aug-24 10:34N 59°57' E 024°54'2120.9
2015-Aug-24 09:34N 59°37' E 024°41'9 4.4
2015-Aug-24 07:33N 59°29' E 024°46'1919.1
2015-Aug-24 06:33N 59°48' E 024°49'2019.9
2015-Aug-24 05:33N 60°07' E 024°54'2 0.2
2015-Aug-23 21:14N 60°09' E 024°55'0 0.0
2015-Aug-23 20:23N 60°09' E 024°55'0 0.0
2015-Aug-23 19:26N 60°09' E 024°55'0 0.0
2015-Aug-23 18:26N 60°09' E 024°55'9 9.9
2015-Aug-23 17:33N 60°01' E 024°54'3021.3
2015-Aug-23 16:09N 59°31' E 024°45'4 2.3
2015-Aug-23 14:30N 59°27' E 024°47'2021.6
2015-Aug-23 13:34N 59°48' E 024°48'10 3.2
2015-Aug-23 10:33N 59°57' E 024°53'2019.9
2015-Aug-23 09:33N 59°38' E 024°42'10 5.0
2015-Aug-23 07:33N 59°28' E 024°46'1919.5
2015-Aug-23 06:33N 59°48' E 024°50'5 0.4
2015-Aug-22 17:28N 59°52' E 024°51'  

Dump ship's entire track history